sensor_id;sensor_type;location;lat;lon;timestamp;P1;durP1;ratioP1;P2;durP2;ratioP2
12088;SDS011;6107;49.078;8.578;2023-02-15T00:01:47;60.67;;;23.77;;
12088;SDS011;6107;49.078;8.578;2023-02-15T00:04:14;52.33;;;23.87;;
12088;SDS011;6107;49.078;8.578;2023-02-15T00:06:41;54.83;;;22.13;;
12088;SDS011;6107;49.078;8.578;2023-02-15T00:09:07;60.13;;;22.90;;
12088;SDS011;6107;49.078;8.578;2023-02-15T00:11:33;68.17;;;23.80;;
12088;SDS011;6107;49.078;8.578;2023-02-15T00:14:09;56.57;;;24.10;;
12088;SDS011;6107;49.078;8.578;2023-02-15T00:16:37;62.00;;;24.23;;
12088;SDS011;6107;49.078;8.578;2023-02-15T00:19:03;58.27;;;23.13;;
12088;SDS011;6107;49.078;8.578;2023-02-15T00:21:29;64.57;;;25.23;;
12088;SDS011;6107;49.078;8.578;2023-02-15T00:23:57;59.37;;;23.53;;
12088;SDS011;6107;49.078;8.578;2023-02-15T00:26:23;61.80;;;24.17;;
12088;SDS011;6107;49.078;8.578;2023-02-15T00:28:49;52.53;;;23.93;;
12088;SDS011;6107;49.078;8.578;2023-02-15T00:31:15;62.20;;;23.67;;
12088;SDS011;6107;49.078;8.578;2023-02-15T00:33:40;59.90;;;24.10;;
12088;SDS011;6107;49.078;8.578;2023-02-15T00:36:07;60.57;;;24.23;;
12088;SDS011;6107;49.078;8.578;2023-02-15T00:38:34;61.33;;;23.00;;
12088;SDS011;6107;49.078;8.578;2023-02-15T00:41:00;66.23;;;24.10;;
12088;SDS011;6107;49.078;8.578;2023-02-15T00:43:28;60.40;;;22.10;;
12088;SDS011;6107;49.078;8.578;2023-02-15T00:45:55;45.43;;;19.90;;
12088;SDS011;6107;49.078;8.578;2023-02-15T00:48:21;46.50;;;21.10;;
12088;SDS011;6107;49.078;8.578;2023-02-15T00:50:48;41.27;;;19.03;;
12088;SDS011;6107;49.078;8.578;2023-02-15T00:53:16;45.47;;;19.43;;
12088;SDS011;6107;49.078;8.578;2023-02-15T00:55:43;43.77;;;18.63;;
12088;SDS011;6107;49.078;8.578;2023-02-15T00:58:09;42.73;;;18.40;;
12088;SDS011;6107;49.078;8.578;2023-02-15T01:00:36;37.77;;;16.87;;
12088;SDS011;6107;49.078;8.578;2023-02-15T01:03:02;44.10;;;18.47;;
12088;SDS011;6107;49.078;8.578;2023-02-15T01:05:28;39.30;;;19.13;;
12088;SDS011;6107;49.078;8.578;2023-02-15T01:07:54;42.73;;;18.13;;
12088;SDS011;6107;49.078;8.578;2023-02-15T01:10:21;42.37;;;18.73;;
12088;SDS011;6107;49.078;8.578;2023-02-15T01:12:46;46.10;;;18.17;;
12088;SDS011;6107;49.078;8.578;2023-02-15T01:15:11;35.47;;;16.23;;
12088;SDS011;6107;49.078;8.578;2023-02-15T01:17:37;32.40;;;16.87;;
12088;SDS011;6107;49.078;8.578;2023-02-15T01:20:03;40.63;;;16.70;;
12088;SDS011;6107;49.078;8.578;2023-02-15T01:22:29;35.00;;;15.43;;
12088;SDS011;6107;49.078;8.578;2023-02-15T01:24:54;32.77;;;16.33;;
12088;SDS011;6107;49.078;8.578;2023-02-15T01:27:20;33.53;;;15.70;;
12088;SDS011;6107;49.078;8.578;2023-02-15T01:29:45;36.10;;;16.83;;
12088;SDS011;6107;49.078;8.578;2023-02-15T01:32:12;44.83;;;20.90;;
12088;SDS011;6107;49.078;8.578;2023-02-15T01:34:38;36.23;;;16.93;;
12088;SDS011;6107;49.078;8.578;2023-02-15T01:37:03;33.47;;;15.00;;
12088;SDS011;6107;49.078;8.578;2023-02-15T01:39:29;37.90;;;16.37;;
12088;SDS011;6107;49.078;8.578;2023-02-15T01:41:54;31.03;;;15.23;;
12088;SDS011;6107;49.078;8.578;2023-02-15T01:47:07;31.70;;;16.30;;
12088;SDS011;6107;49.078;8.578;2023-02-15T01:49:36;34.80;;;16.20;;
12088;SDS011;6107;49.078;8.578;2023-02-15T01:52:06;35.87;;;16.30;;
12088;SDS011;6107;49.078;8.578;2023-02-15T01:54:32;40.13;;;17.23;;
12088;SDS011;6107;49.078;8.578;2023-02-15T01:57:08;36.00;;;16.00;;
12088;SDS011;6107;49.078;8.578;2023-02-15T01:59:43;33.93;;;15.77;;
12088;SDS011;6107;49.078;8.578;2023-02-15T02:02:13;33.93;;;16.23;;
12088;SDS011;6107;49.078;8.578;2023-02-15T02:04:43;35.63;;;16.20;;
12088;SDS011;6107;49.078;8.578;2023-02-15T02:07:12;35.93;;;14.60;;
12088;SDS011;6107;49.078;8.578;2023-02-15T02:09:41;34.70;;;16.27;;
12088;SDS011;6107;49.078;8.578;2023-02-15T02:12:08;32.80;;;15.77;;
12088;SDS011;6107;49.078;8.578;2023-02-15T02:14:34;31.43;;;16.17;;
12088;SDS011;6107;49.078;8.578;2023-02-15T02:22:39;37.20;;;17.03;;
12088;SDS011;6107;49.078;8.578;2023-02-15T02:25:25;35.90;;;16.07;;
12088;SDS011;6107;49.078;8.578;2023-02-15T02:33:50;29.07;;;14.47;;
12088;SDS011;6107;49.078;8.578;2023-02-15T02:36:35;35.43;;;16.47;;
12088;SDS011;6107;49.078;8.578;2023-02-15T02:42:20;30.93;;;15.53;;
12088;SDS011;6107;49.078;8.578;2023-02-15T02:45:05;32.03;;;15.53;;
12088;SDS011;6107;49.078;8.578;2023-02-15T02:47:43;34.10;;;16.17;;
12088;SDS011;6107;49.078;8.578;2023-02-15T02:50:21;31.80;;;14.43;;
12088;SDS011;6107;49.078;8.578;2023-02-15T02:52:50;37.03;;;16.43;;
12088;SDS011;6107;49.078;8.578;2023-02-15T02:58:00;33.83;;;15.40;;
12088;SDS011;6107;49.078;8.578;2023-02-15T03:00:55;33.67;;;15.37;;
12088;SDS011;6107;49.078;8.578;2023-02-15T03:03:24;33.90;;;15.57;;
12088;SDS011;6107;49.078;8.578;2023-02-15T03:05:59;32.83;;;15.73;;
12088;SDS011;6107;49.078;8.578;2023-02-15T03:08:32;31.77;;;14.43;;
12088;SDS011;6107;49.078;8.578;2023-02-15T03:11:08;33.73;;;16.93;;
12088;SDS011;6107;49.078;8.578;2023-02-15T03:13:36;36.70;;;16.00;;
12088;SDS011;6107;49.078;8.578;2023-02-15T03:16:02;39.33;;;16.83;;
12088;SDS011;6107;49.078;8.578;2023-02-15T03:18:51;29.23;;;15.03;;
12088;SDS011;6107;49.078;8.578;2023-02-15T03:21:36;34.87;;;15.17;;
12088;SDS011;6107;49.078;8.578;2023-02-15T03:24:11;32.40;;;15.93;;
12088;SDS011;6107;49.078;8.578;2023-02-15T03:26:40;34.70;;;15.63;;
12088;SDS011;6107;49.078;8.578;2023-02-15T03:29:10;35.70;;;17.00;;
12088;SDS011;6107;49.078;8.578;2023-02-15T03:31:37;37.83;;;16.97;;
12088;SDS011;6107;49.078;8.578;2023-02-15T03:34:06;37.23;;;15.47;;
12088;SDS011;6107;49.078;8.578;2023-02-15T03:39:22;30.63;;;14.77;;
12088;SDS011;6107;49.078;8.578;2023-02-15T03:41:56;31.40;;;14.27;;
12088;SDS011;6107;49.078;8.578;2023-02-15T03:44:30;34.97;;;15.50;;
12088;SDS011;6107;49.078;8.578;2023-02-15T03:49:39;31.50;;;14.77;;
12088;SDS011;6107;49.078;8.578;2023-02-15T03:52:10;34.80;;;15.83;;
12088;SDS011;6107;49.078;8.578;2023-02-15T03:54:38;38.83;;;15.93;;
12088;SDS011;6107;49.078;8.578;2023-02-15T03:57:12;31.47;;;14.57;;
12088;SDS011;6107;49.078;8.578;2023-02-15T04:00:00;28.90;;;13.93;;
12088;SDS011;6107;49.078;8.578;2023-02-15T04:05:26;31.87;;;15.17;;
12088;SDS011;6107;49.078;8.578;2023-02-15T04:07:51;27.13;;;13.47;;
12088;SDS011;6107;49.078;8.578;2023-02-15T04:10:17;29.60;;;14.30;;
12088;SDS011;6107;49.078;8.578;2023-02-15T04:13:01;29.30;;;14.37;;
12088;SDS011;6107;49.078;8.578;2023-02-15T04:15:27;30.70;;;14.07;;
12088;SDS011;6107;49.078;8.578;2023-02-15T04:18:27;27.43;;;13.30;;
12088;SDS011;6107;49.078;8.578;2023-02-15T04:21:12;28.77;;;13.97;;
12088;SDS011;6107;49.078;8.578;2023-02-15T04:23:56;29.07;;;13.00;;
12088;SDS011;6107;49.078;8.578;2023-02-15T04:26:40;29.60;;;14.57;;
12088;SDS011;6107;49.078;8.578;2023-02-15T04:29:05;23.00;;;12.30;;
12088;SDS011;6107;49.078;8.578;2023-02-15T04:31:31;26.27;;;12.63;;
12088;SDS011;6107;49.078;8.578;2023-02-15T04:33:56;24.17;;;12.40;;
12088;SDS011;6107;49.078;8.578;2023-02-15T04:36:22;21.60;;;12.07;;
12088;SDS011;6107;49.078;8.578;2023-02-15T04:38:47;27.30;;;13.03;;
12088;SDS011;6107;49.078;8.578;2023-02-15T04:41:13;28.40;;;13.87;;
12088;SDS011;6107;49.078;8.578;2023-02-15T04:43:38;30.43;;;12.70;;
12088;SDS011;6107;49.078;8.578;2023-02-15T04:46:04;25.93;;;12.63;;
12088;SDS011;6107;49.078;8.578;2023-02-15T04:48:29;25.10;;;13.10;;
12088;SDS011;6107;49.078;8.578;2023-02-15T04:50:55;25.10;;;12.20;;
12088;SDS011;6107;49.078;8.578;2023-02-15T04:53:21;32.87;;;13.27;;
12088;SDS011;6107;49.078;8.578;2023-02-15T04:55:46;30.87;;;14.23;;
12088;SDS011;6107;49.078;8.578;2023-02-15T04:58:12;26.53;;;13.57;;
12088;SDS011;6107;49.078;8.578;2023-02-15T05:00:37;28.77;;;13.20;;
12088;SDS011;6107;49.078;8.578;2023-02-15T05:03:03;27.47;;;12.80;;
12088;SDS011;6107;49.078;8.578;2023-02-15T05:05:28;24.90;;;12.53;;
12088;SDS011;6107;49.078;8.578;2023-02-15T05:07:54;23.87;;;12.83;;
12088;SDS011;6107;49.078;8.578;2023-02-15T05:10:19;26.63;;;13.73;;
12088;SDS011;6107;49.078;8.578;2023-02-15T05:12:45;24.57;;;12.97;;
12088;SDS011;6107;49.078;8.578;2023-02-15T05:15:11;24.27;;;12.67;;
12088;SDS011;6107;49.078;8.578;2023-02-15T05:17:37;23.60;;;12.93;;
12088;SDS011;6107;49.078;8.578;2023-02-15T05:20:02;28.13;;;12.87;;
12088;SDS011;6107;49.078;8.578;2023-02-15T05:22:29;27.77;;;13.67;;
12088;SDS011;6107;49.078;8.578;2023-02-15T05:24:54;31.03;;;14.07;;
12088;SDS011;6107;49.078;8.578;2023-02-15T05:27:38;26.17;;;13.53;;
12088;SDS011;6107;49.078;8.578;2023-02-15T05:30:22;25.10;;;12.97;;
12088;SDS011;6107;49.078;8.578;2023-02-15T05:32:48;24.27;;;12.67;;
12088;SDS011;6107;49.078;8.578;2023-02-15T05:35:14;27.30;;;14.23;;
12088;SDS011;6107;49.078;8.578;2023-02-15T05:37:40;27.77;;;13.40;;
12088;SDS011;6107;49.078;8.578;2023-02-15T05:40:06;28.33;;;13.67;;
12088;SDS011;6107;49.078;8.578;2023-02-15T05:42:32;22.63;;;12.63;;
12088;SDS011;6107;49.078;8.578;2023-02-15T05:44:57;28.97;;;13.33;;
12088;SDS011;6107;49.078;8.578;2023-02-15T05:47:23;27.43;;;13.27;;
12088;SDS011;6107;49.078;8.578;2023-02-15T05:49:48;26.30;;;13.23;;
12088;SDS011;6107;49.078;8.578;2023-02-15T05:52:14;30.37;;;13.60;;
12088;SDS011;6107;49.078;8.578;2023-02-15T05:54:39;27.50;;;13.37;;
12088;SDS011;6107;49.078;8.578;2023-02-15T05:57:05;28.47;;;13.80;;
12088;SDS011;6107;49.078;8.578;2023-02-15T05:59:30;34.17;;;14.40;;
12088;SDS011;6107;49.078;8.578;2023-02-15T06:01:56;28.10;;;15.60;;
12088;SDS011;6107;49.078;8.578;2023-02-15T06:04:21;31.63;;;13.33;;
12088;SDS011;6107;49.078;8.578;2023-02-15T06:06:47;24.70;;;12.80;;
12088;SDS011;6107;49.078;8.578;2023-02-15T06:09:12;34.27;;;14.27;;
12088;SDS011;6107;49.078;8.578;2023-02-15T06:11:39;26.63;;;13.27;;
12088;SDS011;6107;49.078;8.578;2023-02-15T06:14:04;27.07;;;12.93;;
12088;SDS011;6107;49.078;8.578;2023-02-15T06:16:30;25.27;;;14.63;;
12088;SDS011;6107;49.078;8.578;2023-02-15T06:18:56;25.17;;;12.77;;
12088;SDS011;6107;49.078;8.578;2023-02-15T06:21:21;32.80;;;15.73;;
12088;SDS011;6107;49.078;8.578;2023-02-15T06:23:47;30.50;;;15.27;;
12088;SDS011;6107;49.078;8.578;2023-02-15T06:26:12;35.30;;;16.03;;
12088;SDS011;6107;49.078;8.578;2023-02-15T06:28:38;30.40;;;15.37;;
12088;SDS011;6107;49.078;8.578;2023-02-15T06:31:04;29.97;;;14.57;;
12088;SDS011;6107;49.078;8.578;2023-02-15T06:33:30;30.37;;;14.60;;
12088;SDS011;6107;49.078;8.578;2023-02-15T06:35:57;30.37;;;15.80;;
12088;SDS011;6107;49.078;8.578;2023-02-15T06:38:23;28.50;;;15.30;;
12088;SDS011;6107;49.078;8.578;2023-02-15T06:40:48;34.23;;;16.57;;
12088;SDS011;6107;49.078;8.578;2023-02-15T06:43:14;32.57;;;14.37;;
12088;SDS011;6107;49.078;8.578;2023-02-15T06:45:39;28.23;;;14.57;;
12088;SDS011;6107;49.078;8.578;2023-02-15T06:48:06;31.20;;;13.87;;
12088;SDS011;6107;49.078;8.578;2023-02-15T06:50:32;24.73;;;13.10;;
12088;SDS011;6107;49.078;8.578;2023-02-15T06:52:59;24.33;;;12.13;;
12088;SDS011;6107;49.078;8.578;2023-02-15T06:55:24;28.07;;;12.97;;
12088;SDS011;6107;49.078;8.578;2023-02-15T06:57:50;23.90;;;12.07;;
12088;SDS011;6107;49.078;8.578;2023-02-15T07:00:16;24.00;;;12.10;;
12088;SDS011;6107;49.078;8.578;2023-02-15T07:02:42;23.27;;;11.50;;
12088;SDS011;6107;49.078;8.578;2023-02-15T07:05:08;23.50;;;11.63;;
12088;SDS011;6107;49.078;8.578;2023-02-15T07:07:34;26.07;;;12.70;;
12088;SDS011;6107;49.078;8.578;2023-02-15T07:09:59;23.40;;;11.50;;
12088;SDS011;6107;49.078;8.578;2023-02-15T07:12:25;24.03;;;11.90;;
12088;SDS011;6107;49.078;8.578;2023-02-15T07:15:14;21.70;;;11.90;;
12088;SDS011;6107;49.078;8.578;2023-02-15T07:17:41;27.30;;;12.70;;
12088;SDS011;6107;49.078;8.578;2023-02-15T07:20:11;23.77;;;11.67;;
12088;SDS011;6107;49.078;8.578;2023-02-15T07:22:39;22.07;;;12.13;;
12088;SDS011;6107;49.078;8.578;2023-02-15T07:25:05;21.07;;;12.30;;
12088;SDS011;6107;49.078;8.578;2023-02-15T07:27:32;23.83;;;12.53;;
12088;SDS011;6107;49.078;8.578;2023-02-15T07:29:58;27.50;;;14.07;;
12088;SDS011;6107;49.078;8.578;2023-02-15T07:32:28;30.10;;;15.40;;
12088;SDS011;6107;49.078;8.578;2023-02-15T07:34:54;24.47;;;12.87;;
12088;SDS011;6107;49.078;8.578;2023-02-15T07:37:20;29.37;;;13.33;;
12088;SDS011;6107;49.078;8.578;2023-02-15T07:39:45;27.17;;;13.80;;
12088;SDS011;6107;49.078;8.578;2023-02-15T07:42:11;31.53;;;14.53;;
12088;SDS011;6107;49.078;8.578;2023-02-15T07:44:37;26.37;;;12.87;;
12088;SDS011;6107;49.078;8.578;2023-02-15T07:47:02;27.90;;;12.50;;
12088;SDS011;6107;49.078;8.578;2023-02-15T07:49:28;21.73;;;11.97;;
12088;SDS011;6107;49.078;8.578;2023-02-15T07:51:53;28.13;;;13.03;;
12088;SDS011;6107;49.078;8.578;2023-02-15T07:54:19;23.73;;;13.07;;
12088;SDS011;6107;49.078;8.578;2023-02-15T07:56:44;23.97;;;13.30;;
12088;SDS011;6107;49.078;8.578;2023-02-15T07:59:10;27.43;;;13.63;;
12088;SDS011;6107;49.078;8.578;2023-02-15T08:01:36;27.47;;;12.53;;
12088;SDS011;6107;49.078;8.578;2023-02-15T08:04:03;22.37;;;13.00;;
12088;SDS011;6107;49.078;8.578;2023-02-15T08:06:32;23.00;;;12.40;;
12088;SDS011;6107;49.078;8.578;2023-02-15T08:08:59;25.40;;;13.13;;
12088;SDS011;6107;49.078;8.578;2023-02-15T08:49:44;17.60;;;9.43;;
12088;SDS011;6107;49.078;8.578;2023-02-15T08:52:09;13.60;;;9.03;;
12088;SDS011;6107;49.078;8.578;2023-02-15T08:54:35;20.07;;;10.30;;
12088;SDS011;6107;49.078;8.578;2023-02-15T08:57:00;15.53;;;9.80;;
12088;SDS011;6107;49.078;8.578;2023-02-15T08:59:26;14.87;;;9.50;;
12088;SDS011;6107;49.078;8.578;2023-02-15T09:01:52;16.17;;;9.70;;
12088;SDS011;6107;49.078;8.578;2023-02-15T09:04:18;15.27;;;9.23;;
12088;SDS011;6107;49.078;8.578;2023-02-15T09:06:45;16.93;;;9.37;;
12088;SDS011;6107;49.078;8.578;2023-02-15T09:09:12;14.53;;;8.60;;
12088;SDS011;6107;49.078;8.578;2023-02-15T09:11:41;13.20;;;8.07;;
12088;SDS011;6107;49.078;8.578;2023-02-15T09:14:13;16.90;;;8.00;;
12088;SDS011;6107;49.078;8.578;2023-02-15T09:22:43;19.63;;;11.00;;
12088;SDS011;6107;49.078;8.578;2023-02-15T09:25:08;17.37;;;10.80;;
12088;SDS011;6107;49.078;8.578;2023-02-15T09:27:34;16.23;;;10.57;;
12088;SDS011;6107;49.078;8.578;2023-02-15T09:30:01;16.27;;;10.10;;
12088;SDS011;6107;49.078;8.578;2023-02-15T09:32:27;20.90;;;11.00;;
12088;SDS011;6107;49.078;8.578;2023-02-15T09:34:53;17.90;;;10.00;;
12088;SDS011;6107;49.078;8.578;2023-02-15T09:37:18;22.80;;;12.20;;
12088;SDS011;6107;49.078;8.578;2023-02-15T09:39:44;22.47;;;12.00;;
12088;SDS011;6107;49.078;8.578;2023-02-15T09:47:08;26.80;;;13.73;;
12088;SDS011;6107;49.078;8.578;2023-02-15T10:01:11;20.93;;;12.53;;
12088;SDS011;6107;49.078;8.578;2023-02-15T10:12:43;27.60;;;14.67;;
12088;SDS011;6107;49.078;8.578;2023-02-15T10:24:12;27.60;;;14.07;;
12088;SDS011;6107;49.078;8.578;2023-02-15T10:26:45;30.50;;;14.90;;
12088;SDS011;6107;49.078;8.578;2023-02-15T10:29:32;33.83;;;16.03;;
12088;SDS011;6107;49.078;8.578;2023-02-15T10:34:39;26.80;;;13.93;;
12088;SDS011;6107;49.078;8.578;2023-02-15T10:37:23;27.80;;;13.90;;
12088;SDS011;6107;49.078;8.578;2023-02-15T10:48:29;27.13;;;15.20;;
12088;SDS011;6107;49.078;8.578;2023-02-15T10:51:02;29.27;;;14.93;;
12088;SDS011;6107;49.078;8.578;2023-02-15T10:59:06;28.83;;;16.13;;
12088;SDS011;6107;49.078;8.578;2023-02-15T11:05:21;27.00;;;14.47;;
12088;SDS011;6107;49.078;8.578;2023-02-15T11:08:06;23.30;;;13.23;;
12088;SDS011;6107;49.078;8.578;2023-02-15T11:10:39;27.60;;;13.40;;
12088;SDS011;6107;49.078;8.578;2023-02-15T11:13:14;22.53;;;12.83;;
12088;SDS011;6107;49.078;8.578;2023-02-15T11:15:43;26.53;;;13.50;;
12088;SDS011;6107;49.078;8.578;2023-02-15T11:18:28;24.83;;;13.37;;
12088;SDS011;6107;49.078;8.578;2023-02-15T11:23:58;28.17;;;14.40;;
12088;SDS011;6107;49.078;8.578;2023-02-15T11:26:33;27.87;;;15.27;;
12088;SDS011;6107;49.078;8.578;2023-02-15T11:29:07;25.60;;;15.00;;
12088;SDS011;6107;49.078;8.578;2023-02-15T11:31:44;24.37;;;14.07;;
12088;SDS011;6107;49.078;8.578;2023-02-15T11:34:31;24.87;;;13.70;;
12088;SDS011;6107;49.078;8.578;2023-02-15T11:37:07;25.37;;;14.73;;
12088;SDS011;6107;49.078;8.578;2023-02-15T11:39:37;24.83;;;14.47;;
12088;SDS011;6107;49.078;8.578;2023-02-15T11:42:16;23.03;;;12.90;;
12088;SDS011;6107;49.078;8.578;2023-02-15T11:47:44;25.13;;;13.67;;
12088;SDS011;6107;49.078;8.578;2023-02-15T11:50:20;25.13;;;14.03;;
12088;SDS011;6107;49.078;8.578;2023-02-15T11:52:49;22.13;;;13.60;;
12088;SDS011;6107;49.078;8.578;2023-02-15T11:55:20;25.43;;;13.57;;
12088;SDS011;6107;49.078;8.578;2023-02-15T11:58:35;25.83;;;14.30;;
12088;SDS011;6107;49.078;8.578;2023-02-15T12:00:54;24.13;;;13.20;;
12088;SDS011;6107;49.078;8.578;2023-02-15T12:03:50;24.37;;;14.00;;
12088;SDS011;6107;49.078;8.578;2023-02-15T12:06:27;23.37;;;12.77;;
12088;SDS011;6107;49.078;8.578;2023-02-15T12:11:46;21.43;;;13.27;;
12088;SDS011;6107;49.078;8.578;2023-02-15T12:14:12;22.87;;;13.37;;
12088;SDS011;6107;49.078;8.578;2023-02-15T12:19:31;23.30;;;13.50;;
12088;SDS011;6107;49.078;8.578;2023-02-15T12:22:18;23.17;;;13.17;;
12088;SDS011;6107;49.078;8.578;2023-02-15T12:24:50;25.10;;;13.97;;
12088;SDS011;6107;49.078;8.578;2023-02-15T12:27:20;26.20;;;13.93;;
12088;SDS011;6107;49.078;8.578;2023-02-15T12:29:52;25.77;;;14.20;;
12088;SDS011;6107;49.078;8.578;2023-02-15T12:32:25;21.87;;;12.57;;
12088;SDS011;6107;49.078;8.578;2023-02-15T12:35:16;25.83;;;15.03;;
12088;SDS011;6107;49.078;8.578;2023-02-15T12:38:20;22.73;;;13.40;;
12088;SDS011;6107;49.078;8.578;2023-02-15T12:41:02;19.00;;;11.70;;
12088;SDS011;6107;49.078;8.578;2023-02-15T12:43:34;21.37;;;13.00;;
12088;SDS011;6107;49.078;8.578;2023-02-15T12:46:21;24.70;;;13.03;;
12088;SDS011;6107;49.078;8.578;2023-02-15T12:51:46;22.83;;;13.17;;
12088;SDS011;6107;49.078;8.578;2023-02-15T12:56:54;24.90;;;14.03;;
12088;SDS011;6107;49.078;8.578;2023-02-15T12:59:22;24.53;;;13.93;;
12088;SDS011;6107;49.078;8.578;2023-02-15T13:01:48;24.43;;;13.40;;
12088;SDS011;6107;49.078;8.578;2023-02-15T13:04:21;21.50;;;13.53;;
12088;SDS011;6107;49.078;8.578;2023-02-15T13:06:51;21.67;;;13.60;;
12088;SDS011;6107;49.078;8.578;2023-02-15T13:09:20;21.33;;;12.77;;
12088;SDS011;6107;49.078;8.578;2023-02-15T13:11:55;20.43;;;12.60;;
12088;SDS011;6107;49.078;8.578;2023-02-15T13:14:28;22.57;;;12.73;;
12088;SDS011;6107;49.078;8.578;2023-02-15T13:16:57;23.13;;;14.67;;
12088;SDS011;6107;49.078;8.578;2023-02-15T13:19:36;23.70;;;13.67;;
12088;SDS011;6107;49.078;8.578;2023-02-15T13:22:13;21.93;;;13.13;;
12088;SDS011;6107;49.078;8.578;2023-02-15T13:24:43;22.50;;;13.67;;
12088;SDS011;6107;49.078;8.578;2023-02-15T13:27:18;22.13;;;14.00;;
12088;SDS011;6107;49.078;8.578;2023-02-15T13:29:49;26.60;;;14.27;;
12088;SDS011;6107;49.078;8.578;2023-02-15T13:32:25;24.30;;;13.50;;
12088;SDS011;6107;49.078;8.578;2023-02-15T13:35:06;22.33;;;13.33;;
12088;SDS011;6107;49.078;8.578;2023-02-15T13:40:34;26.27;;;14.00;;
12088;SDS011;6107;49.078;8.578;2023-02-15T13:46:10;25.57;;;13.80;;
12088;SDS011;6107;49.078;8.578;2023-02-15T13:51:37;24.93;;;14.23;;
12088;SDS011;6107;49.078;8.578;2023-02-15T13:57:11;22.87;;;14.33;;
12088;SDS011;6107;49.078;8.578;2023-02-15T14:00:01;26.57;;;13.70;;
12088;SDS011;6107;49.078;8.578;2023-02-15T14:02:42;24.77;;;13.93;;
12088;SDS011;6107;49.078;8.578;2023-02-15T14:05:54;24.43;;;15.00;;
12088;SDS011;6107;49.078;8.578;2023-02-15T14:11:32;25.77;;;15.17;;
12088;SDS011;6107;49.078;8.578;2023-02-15T14:14:36;27.03;;;14.67;;
12088;SDS011;6107;49.078;8.578;2023-02-15T14:17:06;21.67;;;13.90;;
12088;SDS011;6107;49.078;8.578;2023-02-15T14:20:01;23.37;;;14.90;;
12088;SDS011;6107;49.078;8.578;2023-02-15T14:22:35;22.83;;;14.40;;
12088;SDS011;6107;49.078;8.578;2023-02-15T14:30:29;22.73;;;13.93;;
12088;SDS011;6107;49.078;8.578;2023-02-15T14:33:07;25.17;;;15.03;;
12088;SDS011;6107;49.078;8.578;2023-02-15T14:35:46;23.93;;;14.60;;
12088;SDS011;6107;49.078;8.578;2023-02-15T14:46:09;23.83;;;14.97;;
12088;SDS011;6107;49.078;8.578;2023-02-15T14:48:49;23.13;;;15.23;;
12088;SDS011;6107;49.078;8.578;2023-02-15T14:54:05;24.43;;;14.63;;
12088;SDS011;6107;49.078;8.578;2023-02-15T14:56:32;24.30;;;14.67;;
12088;SDS011;6107;49.078;8.578;2023-02-15T14:58:58;23.70;;;14.63;;
12088;SDS011;6107;49.078;8.578;2023-02-15T15:01:34;24.33;;;14.47;;
12088;SDS011;6107;49.078;8.578;2023-02-15T15:04:03;25.63;;;14.43;;
12088;SDS011;6107;49.078;8.578;2023-02-15T15:06:33;24.70;;;14.87;;
12088;SDS011;6107;49.078;8.578;2023-02-15T15:09:18;23.90;;;14.30;;
12088;SDS011;6107;49.078;8.578;2023-02-15T15:11:51;24.37;;;14.63;;
12088;SDS011;6107;49.078;8.578;2023-02-15T15:14:36;25.60;;;15.47;;
12088;SDS011;6107;49.078;8.578;2023-02-15T15:17:03;24.43;;;15.00;;
12088;SDS011;6107;49.078;8.578;2023-02-15T15:22:21;23.07;;;14.43;;
12088;SDS011;6107;49.078;8.578;2023-02-15T15:25:07;24.43;;;14.50;;
12088;SDS011;6107;49.078;8.578;2023-02-15T15:32:38;20.90;;;13.60;;
12088;SDS011;6107;49.078;8.578;2023-02-15T15:35:24;24.57;;;15.10;;
12088;SDS011;6107;49.078;8.578;2023-02-15T15:48:35;24.40;;;13.47;;
12088;SDS011;6107;49.078;8.578;2023-02-15T15:51:05;27.83;;;14.13;;
12088;SDS011;6107;49.078;8.578;2023-02-15T15:53:32;21.37;;;12.77;;
12088;SDS011;6107;49.078;8.578;2023-02-15T15:56:05;24.00;;;13.37;;
12088;SDS011;6107;49.078;8.578;2023-02-15T15:58:35;22.90;;;13.47;;
12088;SDS011;6107;49.078;8.578;2023-02-15T16:01:06;22.37;;;13.90;;
12088;SDS011;6107;49.078;8.578;2023-02-15T16:03:34;20.77;;;12.97;;
12088;SDS011;6107;49.078;8.578;2023-02-15T16:06:00;21.77;;;13.83;;
12088;SDS011;6107;49.078;8.578;2023-02-15T16:11:10;23.60;;;13.10;;
12088;SDS011;6107;49.078;8.578;2023-02-15T16:13:43;25.33;;;13.87;;
12088;SDS011;6107;49.078;8.578;2023-02-15T16:16:09;24.50;;;13.97;;
12088;SDS011;6107;49.078;8.578;2023-02-15T16:18:38;25.10;;;13.83;;
12088;SDS011;6107;49.078;8.578;2023-02-15T16:21:18;25.87;;;14.20;;
12088;SDS011;6107;49.078;8.578;2023-02-15T16:26:52;24.73;;;13.83;;
12088;SDS011;6107;49.078;8.578;2023-02-15T16:29:31;26.63;;;13.23;;
12088;SDS011;6107;49.078;8.578;2023-02-15T16:32:05;22.50;;;13.30;;
12088;SDS011;6107;49.078;8.578;2023-02-15T16:37:32;28.47;;;14.77;;
12088;SDS011;6107;49.078;8.578;2023-02-15T16:39:59;27.40;;;14.37;;
12088;SDS011;6107;49.078;8.578;2023-02-15T16:42:25;28.83;;;14.60;;
12088;SDS011;6107;49.078;8.578;2023-02-15T16:44:51;26.00;;;14.00;;
12088;SDS011;6107;49.078;8.578;2023-02-15T16:47:22;25.10;;;13.67;;
12088;SDS011;6107;49.078;8.578;2023-02-15T16:49:51;23.90;;;13.23;;
12088;SDS011;6107;49.078;8.578;2023-02-15T16:52:23;25.03;;;14.27;;
12088;SDS011;6107;49.078;8.578;2023-02-15T16:54:56;24.00;;;11.97;;
12088;SDS011;6107;49.078;8.578;2023-02-15T16:57:24;22.40;;;13.73;;
12088;SDS011;6107;49.078;8.578;2023-02-15T17:00:04;25.70;;;14.03;;
12088;SDS011;6107;49.078;8.578;2023-02-15T17:02:32;26.10;;;14.07;;
12088;SDS011;6107;49.078;8.578;2023-02-15T17:05:01;22.47;;;13.00;;
12088;SDS011;6107;49.078;8.578;2023-02-15T17:07:41;26.30;;;14.70;;
12088;SDS011;6107;49.078;8.578;2023-02-15T17:10:34;25.80;;;15.13;;
12088;SDS011;6107;49.078;8.578;2023-02-15T17:15:41;28.13;;;15.00;;
12088;SDS011;6107;49.078;8.578;2023-02-15T17:18:12;26.67;;;13.93;;
12088;SDS011;6107;49.078;8.578;2023-02-15T17:20:44;23.13;;;14.33;;
12088;SDS011;6107;49.078;8.578;2023-02-15T17:25:56;28.43;;;14.43;;
12088;SDS011;6107;49.078;8.578;2023-02-15T17:28:23;26.97;;;14.47;;
12088;SDS011;6107;49.078;8.578;2023-02-15T17:30:52;25.30;;;14.10;;
12088;SDS011;6107;49.078;8.578;2023-02-15T17:33:24;23.03;;;13.40;;
12088;SDS011;6107;49.078;8.578;2023-02-15T17:41:30;28.57;;;15.70;;
12088;SDS011;6107;49.078;8.578;2023-02-15T17:44:00;28.13;;;14.40;;
12088;SDS011;6107;49.078;8.578;2023-02-15T17:46:28;24.17;;;13.73;;
12088;SDS011;6107;49.078;8.578;2023-02-15T17:48:59;24.77;;;14.63;;
12088;SDS011;6107;49.078;8.578;2023-02-15T17:51:25;24.77;;;13.13;;
12088;SDS011;6107;49.078;8.578;2023-02-15T17:53:51;25.40;;;13.77;;
12088;SDS011;6107;49.078;8.578;2023-02-15T17:56:35;24.17;;;13.10;;
12088;SDS011;6107;49.078;8.578;2023-02-15T17:59:02;26.80;;;13.83;;
12088;SDS011;6107;49.078;8.578;2023-02-15T18:01:32;26.20;;;14.33;;
12088;SDS011;6107;49.078;8.578;2023-02-15T18:04:18;23.20;;;13.13;;
12088;SDS011;6107;49.078;8.578;2023-02-15T18:07:03;27.40;;;13.47;;
12088;SDS011;6107;49.078;8.578;2023-02-15T18:09:47;25.47;;;14.80;;
12088;SDS011;6107;49.078;8.578;2023-02-15T18:12:32;27.13;;;13.63;;
12088;SDS011;6107;49.078;8.578;2023-02-15T18:15:02;27.77;;;14.80;;
12088;SDS011;6107;49.078;8.578;2023-02-15T18:19:57;26.77;;;14.57;;
12088;SDS011;6107;49.078;8.578;2023-02-15T18:22:26;24.00;;;13.47;;
12088;SDS011;6107;49.078;8.578;2023-02-15T18:24:53;25.10;;;13.53;;
12088;SDS011;6107;49.078;8.578;2023-02-15T18:27:18;27.40;;;14.20;;
12088;SDS011;6107;49.078;8.578;2023-02-15T18:29:45;28.87;;;14.23;;
12088;SDS011;6107;49.078;8.578;2023-02-15T18:32:16;25.50;;;14.20;;
12088;SDS011;6107;49.078;8.578;2023-02-15T18:34:45;29.33;;;15.03;;